Time;durP1;ratioP1;P1;durP2;ratioP2;P2;SDS_P1;SDS_P2;PMS_P1;PMS_P2;Temp;Humidity;BMP_temperature;BMP_pressure;BME280_temperature;BME280_humidity;BME280_pressure;Samples;Min_cycle;Max_cycle;Signal;HPM_P1;HPM_P2
2022/02/04 00:09:17;;;;;;;58.35;28.05;;;;;;;12.16;100.00;101034.81;4975240;28;20070;-66
2022/02/04 00:20:18;;;;;;;61.53;27.58;;;;;;;12.16;100.00;101026.78;4960237;28;20061;-66
2022/02/04 00:22:58;;;;;;;53.45;26.65;;;;;;;12.12;100.00;101025.53;4945390;28;20382;-66
2022/02/04 00:28:22;;;;;;;52.85;24.45;;;;;;;12.11;100.00;101015.84;4939447;28;20490;-65
2022/02/04 00:31:01;;;;;;;57.72;27.67;;;;;;;12.63;100.00;101018.00;4942938;28;20130;-64
2022/02/04 00:33:30;;;;;;;50.90;24.83;;;;;;;12.40;100.00;101029.13;4957530;28;20074;-66
2022/02/04 00:36:03;;;;;;;60.03;27.70;;;;;;;12.09;100.00;101015.22;4957525;28;20377;-66
2022/02/04 00:38:36;;;;;;;54.60;28.27;;;;;;;12.24;100.00;101012.38;4974554;28;20392;-65
2022/02/04 00:41:07;;;;;;;56.10;27.38;;;;;;;12.28;100.00;101008.25;4958816;28;20556;-66
2022/02/04 00:43:33;;;;;;;56.88;28.05;;;;;;;12.12;100.00;101014.81;4974916;28;20047;-66
2022/02/04 00:51:31;;;;;;;61.13;26.88;;;;;;;12.16;100.00;101005.34;4968134;28;20042;-65
2022/02/04 00:56:37;;;;;;;52.28;25.65;;;;;;;12.05;100.00;101004.06;4974510;28;20136;-66
2022/02/04 01:26:17;;;;;;;51.50;24.00;;;;;;;12.30;100.00;100986.59;4974175;28;20038;-66
2022/02/04 01:28:46;;;;;;;50.20;22.23;;;;;;;12.30;100.00;100984.72;4957288;28;20110;-66
2022/02/04 01:31:15;;;;;;;45.40;22.95;;;;;;;11.98;100.00;100978.22;4956994;28;20487;-66
2022/02/04 01:33:41;;;;;;;48.03;23.75;;;;;;;11.96;100.00;100972.25;4974511;28;20391;-67
2022/02/04 01:36:07;;;;;;;42.95;22.80;;;;;;;11.97;100.00;100974.75;4957134;28;20049;-67
2022/02/04 01:38:32;;;;;;;50.55;23.42;;;;;;;12.17;100.00;100974.81;4940987;28;20039;-66
2022/02/04 01:40:58;;;;;;;47.72;24.75;;;;;;;11.78;100.00;100976.31;4973923;28;20120;-65
2022/02/04 01:43:24;;;;;;;40.03;21.27;;;;;;;12.03;100.00;100984.69;4957056;28;20058;-67
2022/02/04 01:45:53;;;;;;;44.83;20.08;;;;;;;12.11;100.00;100986.34;4974397;28;20035;-66
2022/02/04 01:48:19;;;;;;;44.17;21.27;;;;;;;11.93;100.00;100986.06;4977594;28;20043;-66
2022/02/04 01:50:47;;;;;;;46.58;22.13;;;;;;;12.06;100.00;100983.47;4977777;28;20035;-66
2022/02/04 01:53:14;;;;;;;41.97;20.02;;;;;;;12.03;100.00;100992.72;4977564;28;20484;-66
2022/02/04 01:55:42;;;;;;;39.95;19.13;;;;;;;11.85;100.00;100995.09;4977708;28;20404;-66
2022/02/04 01:58:08;;;;;;;36.15;18.27;;;;;;;12.05;100.00;100997.88;4960522;28;20057;-66
2022/02/04 02:00:34;;;;;;;41.77;19.50;;;;;;;12.03;100.00;100991.91;4977515;28;20454;-68
2022/02/04 02:03:00;;;;;;;39.97;19.58;;;;;;;11.99;100.00;100983.41;4977525;28;20047;-65
2022/02/04 02:05:25;;;;;;;38.95;19.70;;;;;;;11.71;100.00;100981.66;4977391;28;20047;-66
2022/02/04 02:07:51;;;;;;;41.10;20.80;;;;;;;11.86;100.00;100973.47;4977643;28;20492;-66
2022/02/04 02:10:19;;;;;;;41.22;19.70;;;;;;;11.71;100.00;100970.09;4977538;28;20073;-66
2022/02/04 02:15:40;;;;;;;41.60;17.83;;;;;;;11.76;100.00;100956.91;4977496;28;20126;-66
2022/02/04 02:45:33;;;;;;;29.77;15.93;;;;;;;11.78;100.00;100933.47;4976717;28;20117;-66
2022/02/04 03:02:58;;;;;;;24.40;12.70;;;;;;;11.82;100.00;100917.78;4960747;28;20486;-65
2022/02/04 03:05:24;;;;;;;27.10;11.65;;;;;;;11.71;100.00;100912.00;4976298;28;20062;-66
2022/02/04 03:07:49;;;;;;;26.08;12.23;;;;;;;11.85;100.00;100906.66;4943180;28;20043;-66
2022/02/04 03:10:15;;;;;;;30.40;14.30;;;;;;;11.75;100.00;100912.41;4976486;28;20123;-66
2022/02/04 03:12:43;;;;;;;26.33;13.75;;;;;;;11.64;100.00;100911.13;4958813;28;20411;-66
2022/02/04 03:15:09;;;;;;;26.70;12.82;;;;;;;11.47;100.00;100900.78;4976256;28;20493;-66
2022/02/04 03:17:35;;;;;;;22.00;11.38;;;;;;;11.87;100.00;100897.41;4976098;28;20483;-64
2022/02/04 03:20:06;;;;;;;25.45;12.23;;;;;;;11.73;100.00;100898.38;4976355;28;20046;-66
2022/02/04 03:22:31;;;;;;;23.08;11.70;;;;;;;11.64;100.00;100894.25;4959195;28;20446;-66
2022/02/04 03:25:01;;;;;;;22.50;11.33;;;;;;;11.79;100.00;100902.97;4958778;28;20126;-66
2022/02/04 03:27:34;;;;;;;21.20;10.02;;;;;;;11.77;100.00;100905.00;4943365;28;20554;-66
2022/02/04 03:30:08;;;;;;;19.08;10.40;;;;;;;12.04;100.00;100899.75;4959871;28;20499;-67
2022/02/04 03:32:37;;;;;;;23.13;10.77;;;;;;;12.05;100.00;100891.47;4944067;28;20569;-66
2022/02/04 03:35:03;;;;;;;25.42;11.00;;;;;;;12.19;100.00;100886.94;4958741;28;20108;-66
2022/02/04 03:37:29;;;;;;;17.98;9.40;;;;;;;11.87;100.00;100878.63;4958399;28;20047;-65
2022/02/04 03:39:54;;;;;;;20.63;9.38;;;;;;;11.80;100.00;100893.88;4942583;28;20054;-66
2022/02/04 03:42:20;;;;;;;23.37;10.67;;;;;;;12.02;100.00;100883.84;4942457;28;20049;-65
2022/02/04 03:44:45;;;;;;;19.00;8.63;;;;;;;12.04;100.00;100881.78;4975791;28;20039;-65
2022/02/04 03:47:11;;;;;;;18.63;10.20;;;;;;;11.97;100.00;100893.50;4975437;28;20066;-64
2022/02/04 03:49:37;;;;;;;17.13;9.27;;;;;;;12.20;100.00;100879.75;4975553;28;20128;-65
2022/02/04 03:52:03;;;;;;;21.90;10.10;;;;;;;11.68;100.00;100879.41;4958367;28;20054;-65
2022/02/04 03:54:28;;;;;;;22.20;10.65;;;;;;;11.81;100.00;100876.78;4975544;28;20736;-65
2022/02/04 03:56:54;;;;;;;21.07;9.83;;;;;;;11.86;100.00;100868.09;4975885;28;20042;-66
2022/02/04 03:59:19;;;;;;;19.30;9.80;;;;;;;12.03;100.00;100873.97;4975574;28;20043;-65
2022/02/04 04:01:45;;;;;;;19.30;8.73;;;;;;;11.91;100.00;100868.34;4974021;28;20312;-65
2022/02/04 04:04:10;;;;;;;17.77;8.95;;;;;;;11.98;100.00;100860.28;4975521;28;20039;-63
2022/02/04 04:06:36;;;;;;;19.77;8.75;;;;;;;11.84;100.00;100868.34;4975385;28;20057;-65
2022/02/04 04:09:02;;;;;;;18.95;9.70;;;;;;;11.96;100.00;100883.81;4957426;28;20043;-66
2022/02/04 04:11:27;;;;;;;17.67;9.68;;;;;;;11.78;100.00;100866.47;4958203;28;20100;-67
2022/02/04 04:13:53;;;;;;;20.33;9.43;;;;;;;11.62;100.00;100865.81;4974859;28;20051;-66
2022/02/04 04:16:20;;;;;;;17.02;8.80;;;;;;;11.97;100.00;100869.38;4957763;28;20046;-65
2022/02/04 04:18:45;;;;;;;21.70;10.00;;;;;;;11.90;100.00;100864.84;4941959;28;20484;-66
2022/02/04 04:21:11;;;;;;;19.33;8.90;;;;;;;11.98;100.00;100869.19;4974792;28;20248;-64
2022/02/04 04:23:37;;;;;;;16.42;8.88;;;;;;;11.73;100.00;100866.22;4957692;28;20047;-66
2022/02/04 04:26:02;;;;;;;17.50;8.80;;;;;;;11.85;100.00;100878.03;4975085;28;20495;-66
2022/02/04 04:28:28;;;;;;;20.15;8.10;;;;;;;11.83;100.00;100866.69;4957551;28;20047;-66
2022/02/04 04:30:53;;;;;;;17.27;8.93;;;;;;;11.93;100.00;100862.78;4957545;28;20046;-66
2022/02/04 04:33:19;;;;;;;18.77;8.93;;;;;;;11.77;100.00;100870.19;4957410;28;20289;-65
2022/02/04 04:35:44;;;;;;;15.33;8.47;;;;;;;11.81;100.00;100862.53;4974884;28;20368;-66
2022/02/04 04:38:26;;;;;;;19.43;8.70;;;;;;;11.89;100.00;100871.22;4941524;28;20039;-67
2022/02/04 05:29:23;;;;;;;13.65;6.13;;;;;;;11.89;100.00;100843.63;4953663;28;20559;-64
2022/02/04 05:31:49;;;;;;;12.02;6.20;;;;;;;12.12;100.00;100845.09;4945542;28;20588;-66
2022/02/04 05:34:17;;;;;;;10.07;5.38;;;;;;;11.82;100.00;100840.91;4960823;28;20088;-65
2022/02/04 05:36:46;;;;;;;11.45;5.53;;;;;;;12.02;100.00;100848.19;4977912;28;20483;-67
2022/02/04 05:39:12;;;;;;;16.77;5.95;;;;;;;11.95;100.00;100844.63;4978117;28;20494;-67
2022/02/04 05:41:42;;;;;;;;;;;;;;;11.85;100.00;100843.19;4960915;28;20480;-66
2022/02/04 05:44:11;;;;;;;16.30;6.80;;;;;;;12.04;100.00;100833.53;4960625;28;20412;-66
2022/02/04 05:46:49;;;;;;;9.98;4.53;;;;;;;11.98;100.00;100830.81;4961506;28;20538;-65
2022/02/04 05:49:17;;;;;;;8.68;5.25;;;;;;;11.85;100.00;100820.91;4946503;28;20076;-66
2022/02/04 05:51:56;;;;;;;12.25;6.18;;;;;;;12.00;100.00;100816.19;4978460;28;20460;-66
2022/02/04 05:54:45;;;;;;;19.00;7.47;;;;;;;11.87;100.00;100816.16;4977394;28;20046;-63
2022/02/04 05:57:16;;;;;;;10.52;6.30;;;;;;;11.88;100.00;100810.63;4963960;28;20502;-66
2022/02/04 06:05:27;;;;;;;11.70;5.82;;;;;;;11.90;100.00;100797.03;4913913;28;20495;-67
2022/02/04 06:23:51;;;;;;;17.40;7.93;;;;;;;11.94;100.00;100775.97;4977134;28;20039;-67
2022/02/04 06:26:17;;;;;;;16.83;8.20;;;;;;;11.84;100.00;100787.09;4959913;28;20398;-66
2022/02/04 06:28:43;;;;;;;12.30;6.25;;;;;;;12.03;100.00;100785.50;4976970;28;20046;-66
2022/02/04 06:31:09;;;;;;;10.48;5.28;;;;;;;11.77;100.00;100784.44;4960098;28;20458;-66
2022/02/04 06:33:35;;;;;;;9.75;5.28;;;;;;;11.81;100.00;100788.34;4976285;28;20062;-66
2022/02/04 06:36:02;;;;;;;12.85;5.93;;;;;;;11.75;100.00;100784.63;4959920;28;20046;-66
2022/02/04 06:38:27;;;;;;;13.73;4.95;;;;;;;11.70;100.00;100779.06;4959938;28;20498;-65
2022/02/04 06:40:53;;;;;;;9.98;5.50;;;;;;;11.99;100.00;100771.66;4943782;28;20134;-66
2022/02/04 06:43:18;;;;;;;8.32;4.75;;;;;;;11.80;100.00;100784.03;4960171;28;20062;-66
2022/02/04 06:45:44;;;;;;;12.50;5.03;;;;;;;11.97;100.00;100789.81;4959765;28;20046;-66
2022/02/04 06:48:10;;;;;;;9.05;4.90;;;;;;;11.96;100.00;100779.28;4976581;28;20113;-66
2022/02/04 06:50:35;;;;;;;11.90;5.60;;;;;;;11.82;100.00;100755.19;4977093;28;20077;-67
2022/02/04 06:53:03;;;;;;;17.48;6.38;;;;;;;11.86;100.00;100761.75;4976633;28;20098;-66
2022/02/04 06:55:29;;;;;;;12.73;7.53;;;;;;;11.73;100.00;100769.78;4959842;28;20042;-64
2022/02/04 06:57:56;;;;;;;12.93;6.47;;;;;;;11.81;100.00;100761.56;4976348;28;20039;-66
2022/02/04 07:00:25;;;;;;;11.00;6.45;;;;;;;11.82;100.00;100779.28;4976381;28;20039;-67
2022/02/04 07:02:52;;;;;;;12.32;6.13;;;;;;;11.99;100.00;100774.34;4943818;28;20421;-66
2022/02/04 07:05:18;;;;;;;11.85;5.75;;;;;;;11.62;100.00;100780.09;4976238;28;20483;-66
2022/02/04 07:08:08;;;;;;;10.80;6.20;;;;;;;11.50;100.00;100773.66;4976794;28;20200;-66
2022/02/04 07:13:22;;;;;;;12.68;7.18;;;;;;;11.79;100.00;100779.69;4976609;28;20034;-66
2022/02/04 07:15:54;;;;;;;12.63;7.18;;;;;;;11.66;100.00;100767.13;4975956;28;20043;-66
2022/02/04 07:20:52;;;;;;;11.45;6.53;;;;;;;11.80;100.00;100776.00;4975858;28;20482;-66
2022/02/04 07:23:18;;;;;;;12.65;6.63;;;;;;;11.62;100.00;100765.84;4958802;28;20586;-66
2022/02/04 07:25:43;;;;;;;12.00;6.53;;;;;;;11.44;100.00;100771.81;4976110;28;20198;-64
2022/02/04 07:28:09;;;;;;;13.27;7.33;;;;;;;11.67;100.00;100765.25;4975676;28;20086;-64
2022/02/04 07:30:34;;;;;;;12.43;7.68;;;;;;;11.55;100.00;100746.28;4975733;28;20043;-65
2022/02/04 07:33:14;;;;;;;13.23;7.60;;;;;;;11.69;100.00;100752.47;4958716;28;20476;-65
2022/02/04 07:38:47;;;;;;;14.02;6.20;;;;;;;11.53;100.00;100767.09;4960934;28;20043;-67
2022/02/04 07:41:13;;;;;;;15.68;8.38;;;;;;;11.57;100.00;100755.78;4976119;28;20047;-66
2022/02/04 07:43:39;;;;;;;12.93;7.55;;;;;;;11.68;100.00;100740.13;4974802;28;20519;-65
2022/02/04 07:46:05;;;;;;;13.88;8.80;;;;;;;11.44;100.00;100740.50;4975423;28;20446;-66
2022/02/04 07:48:30;;;;;;;12.93;7.33;;;;;;;11.42;100.00;100739.06;4957652;28;20065;-66
2022/02/04 07:50:57;;;;;;;13.85;7.93;;;;;;;11.54;100.00;100744.63;4975508;28;20069;-66
2022/02/04 07:53:30;;;;;;;14.20;9.23;;;;;;;11.71;100.00;100750.41;4958130;28;20472;-66
2022/02/04 07:55:55;;;;;;;14.48;9.65;;;;;;;11.62;100.00;100747.09;4975892;28;20066;-66
2022/02/04 07:58:21;;;;;;;22.05;10.43;;;;;;;11.69;100.00;100750.63;4975404;28;20039;-66
2022/02/04 08:00:47;;;;;;;13.85;8.35;;;;;;;11.48;100.00;100749.78;4975151;28;20105;-66
2022/02/04 08:05:41;;;;;;;19.83;7.90;;;;;;;11.64;100.00;100741.56;4974994;28;20579;-65
2022/02/04 08:08:21;;;;;;;16.98;8.52;;;;;;;11.73;100.00;100743.84;4975148;28;20121;-67
2022/02/04 08:11:11;;;;;;;16.92;8.02;;;;;;;11.59;100.00;100734.13;4958152;28;20456;-67
2022/02/04 08:14:05;;;;;;;14.52;8.55;;;;;;;12.04;100.00;100734.38;4976065;28;20046;-65
2022/02/04 08:35:09;;;;;;;19.45;10.45;;;;;;;11.83;100.00;100727.34;4940728;28;20376;-64
2022/02/04 08:51:13;;;;;;;22.13;11.77;;;;;;;12.01;100.00;100712.53;4943969;28;20579;-67
2022/02/04 08:56:04;;;;;;;17.13;11.07;;;;;;;11.99;100.00;100698.47;4956890;28;20142;-65
2022/02/04 08:58:38;;;;;;;18.83;9.90;;;;;;;12.07;100.00;100711.69;4975040;28;20284;-66
2022/02/04 09:01:23;;;;;;;14.23;8.53;;;;;;;12.17;100.00;100714.75;4942690;28;20296;-66
2022/02/04 09:03:52;;;;;;;16.08;8.68;;;;;;;12.15;100.00;100687.34;4974513;28;20334;-66
2022/02/04 09:06:26;;;;;;;13.13;8.52;;;;;;;11.79;100.00;100685.09;4957131;28;20491;-66
2022/02/04 09:08:58;;;;;;;15.53;9.27;;;;;;;12.13;100.00;100684.03;4974446;28;20487;-66
2022/02/04 09:20:10;;;;;;;17.08;10.55;;;;;;;12.17;100.00;100679.91;4957703;28;20360;-66
2022/02/04 09:22:43;;;;;;;12.18;7.50;;;;;;;11.89;100.00;100664.88;4969551;28;20539;-65
2022/02/04 09:25:10;;;;;;;11.63;7.68;;;;;;;12.59;100.00;100665.34;4959361;28;20404;-66
2022/02/04 09:27:37;;;;;;;11.73;7.65;;;;;;;12.03;100.00;100694.38;4973878;28;20043;-65
2022/02/04 09:30:06;;;;;;;10.07;6.97;;;;;;;12.39;100.00;100660.06;4956640;28;20061;-65
2022/02/04 09:32:34;;;;;;;16.30;10.20;;;;;;;12.26;100.00;100652.88;4974039;28;20796;-65
2022/02/04 09:35:01;;;;;;;13.77;8.03;;;;;;;12.48;100.00;100658.78;4973628;28;20383;-65
2022/02/04 09:37:26;;;;;;;11.77;7.63;;;;;;;12.58;100.00;100652.97;4924999;28;20285;-66
2022/02/04 09:39:52;;;;;;;12.20;8.60;;;;;;;12.28;100.00;100658.84;4957035;28;20487;-66
2022/02/04 09:42:17;;;;;;;11.27;8.07;;;;;;;12.56;100.00;100658.53;4973825;28;20049;-65
2022/02/04 09:44:43;;;;;;;11.98;7.22;;;;;;;12.38;100.00;100635.09;4941494;28;20423;-68
2022/02/04 09:47:09;;;;;;;11.02;6.25;;;;;;;12.39;100.00;100623.31;4974191;28;20039;-66
2022/02/04 09:49:40;;;;;;;11.05;7.22;;;;;;;12.68;100.00;100626.47;4956839;28;20121;-66
2022/02/04 10:19:49;;;;;;;6.83;4.20;;;;;;;12.42;100.00;100620.22;4977112;28;20757;-65
2022/02/04 10:22:27;;;;;;;6.77;4.60;;;;;;;12.53;100.00;100599.94;4960285;28;20363;-65
2022/02/04 10:24:57;;;;;;;10.43;6.40;;;;;;;13.02;100.00;100597.59;4977229;28;20268;-66
2022/02/04 10:27:25;;;;;;;9.47;6.80;;;;;;;14.16;100.00;100608.31;4976913;28;20363;-66
2022/02/04 10:29:53;;;;;;;7.43;4.50;;;;;;;14.95;100.00;100593.25;4959762;28;20276;-66
2022/02/04 10:32:24;;;;;;;6.63;3.90;;;;;;;14.65;100.00;100594.88;4960494;28;20650;-66
2022/02/04 10:35:21;;;;;;;5.23;3.70;;;;;;;15.46;100.00;100601.75;4943770;28;20772;-66
2022/02/04 10:41:01;;;;;;;6.05;3.47;;;;;;;14.79;100.00;100595.53;4944026;28;20369;-66
2022/02/04 10:49:05;;;;;;;7.97;3.77;;;;;;;13.57;100.00;100596.13;4959156;28;20292;-66
2022/02/04 10:52:00;;;;;;;6.73;3.43;;;;;;;13.89;100.00;100587.97;4976792;28;20285;-67
2022/02/04 10:55:01;;;;;;;5.47;4.10;;;;;;;13.93;100.00;100574.06;4958171;28;20288;-67
2022/02/04 11:00:27;;;;;;;7.57;4.67;;;;;;;14.09;100.00;100576.16;4976025;28;20733;-67
2022/02/04 11:03:07;;;;;;;6.43;4.70;;;;;;;13.53;100.00;100557.31;4976261;28;20811;-67
2022/02/04 11:06:13;;;;;;;7.00;4.67;;;;;;;13.64;100.00;100573.75;4976202;28;20294;-67
2022/02/04 11:08:49;;;;;;;7.23;4.97;;;;;;;13.64;100.00;100541.53;4974186;28;20737;-67
2022/02/04 11:36:24;;;;;;;6.13;4.23;;;;;;;13.26;100.00;100460.03;4975615;28;20749;-66
2022/02/04 11:48:46;;;;;;;;;;;;;;;13.23;100.00;100437.16;4975565;28;20753;-67
2022/02/04 11:52:01;;;;;;;7.57;3.10;;;;;;;13.36;100.00;100422.75;4958103;28;19918;-67
2022/02/04 11:57:20;;;;;;;6.20;3.20;;;;;;;13.24;100.00;100441.47;4975469;28;20490;-66
2022/02/04 11:59:49;;;;;;;7.67;3.67;;;;;;;13.36;100.00;100435.34;4969866;28;20304;-67
2022/02/04 12:02:24;;;;;;;5.53;3.00;;;;;;;13.10;100.00;100435.44;4975022;28;20780;-67
2022/02/04 12:07:34;;;;;;;7.43;3.30;;;;;;;12.98;100.00;100383.50;4974907;28;20756;-69
2022/02/04 12:10:01;;;;;;;6.50;3.20;;;;;;;13.63;100.00;100400.97;4975497;28;20292;-67
2022/02/04 12:13:09;;;;;;;5.67;2.90;;;;;;;13.19;100.00;100388.44;4957816;28;20276;-66
2022/02/04 12:15:45;;;;;;;5.47;3.00;;;;;;;13.32;100.00;100375.91;4975076;28;20367;-68
2022/02/04 12:18:17;;;;;;;4.97;3.10;;;;;;;13.13;100.00;100381.28;4974755;28;20296;-66
2022/02/04 12:20:50;;;;;;;7.03;2.50;;;;;;;13.13;100.00;100375.06;4975446;28;20355;-68
2022/02/04 12:23:35;;;;;;;3.87;2.40;;;;;;;13.12;100.00;100373.44;4974849;28;20743;-67
2022/02/04 12:26:13;;;;;;;7.73;4.00;;;;;;;13.15;100.00;100387.25;4975682;28;20602;-65
2022/02/04 12:28:43;;;;;;;4.50;2.53;;;;;;;13.38;100.00;100356.19;4957425;28;20748;-67
2022/02/04 12:31:45;;;;;;;4.63;2.80;;;;;;;13.57;100.00;100343.56;4975138;28;20323;-68
2022/02/04 12:34:13;;;;;;;5.55;2.20;;;;;;;13.19;100.00;100352.72;4973358;28;20747;-67
2022/02/04 12:36:44;;;;;;;4.83;2.30;;;;;;;13.30;100.00;100351.94;4974515;28;20031;-68
2022/02/04 12:39:11;;;;;;;7.63;3.50;;;;;;;13.40;100.00;100358.69;4974354;28;20272;-67
2022/02/04 12:41:40;;;;;;;5.37;2.60;;;;;;;13.49;100.00;100341.22;4974844;28;20272;-66
2022/02/04 12:44:10;;;;;;;5.63;2.20;;;;;;;13.40;100.00;100321.88;4973502;28;20280;-66
2022/02/04 12:46:41;;;;;;;6.77;3.03;;;;;;;13.46;100.00;100321.00;4974703;28;20745;-68
2022/02/04 12:49:08;;;;;;;4.17;2.40;;;;;;;13.34;100.00;100328.16;4957357;28;20768;-67
2022/02/04 12:54:43;;;;;;;4.17;2.60;;;;;;;13.25;100.00;100324.97;4973969;28;20749;-68
2022/02/04 13:10:29;;;;;;;5.00;2.97;;;;;;;13.31;100.00;100273.03;4974051;28;19914;-66
2022/02/04 13:13:05;;;;;;;4.93;2.80;;;;;;;13.11;100.00;100280.53;4973942;28;20756;-65
2022/02/04 13:15:33;;;;;;;7.80;3.07;;;;;;;13.26;100.00;100269.38;4974399;28;20039;-66
2022/02/04 13:18:00;;;;;;;6.43;2.87;;;;;;;13.19;100.00;100270.28;4956308;28;20376;-66
2022/02/04 13:20:26;;;;;;;;;;;;;;;13.12;100.00;100266.06;4974023;28;20752;-68
2022/02/04 13:22:55;;;;;;;7.10;2.87;;;;;;;12.72;100.00;100272.72;4973711;28;19921;-67
2022/02/04 13:25:23;;;;;;;9.17;3.90;;;;;;;12.83;100.00;100276.53;4972353;28;20725;-65
2022/02/04 13:28:11;;;;;;;13.33;4.63;;;;;;;12.81;100.00;100278.63;4956477;28;20713;-67
2022/02/04 13:30:41;;;;;;;11.75;4.07;;;;;;;12.37;100.00;100262.59;4973987;28;20764;-67
2022/02/04 13:33:19;;;;;;;8.80;4.40;;;;;;;12.28;100.00;100262.03;4973799;28;20529;-65
2022/02/04 13:35:53;;;;;;;7.40;5.05;;;;;;;12.10;100.00;100252.91;4972821;28;20296;-66
2022/02/04 13:38:30;;;;;;;16.70;5.70;;;;;;;12.02;100.00;100253.22;4974065;28;20480;-66
2022/02/04 13:44:01;;;;;;;22.05;6.85;;;;;;;12.04;100.00;100246.56;4976781;28;20310;-66
2022/02/04 13:46:43;;;;;;;14.95;6.70;;;;;;;11.19;100.00;100237.06;4978038;28;20531;-66
2022/02/04 13:49:36;;;;;;;14.20;7.25;;;;;;;11.51;100.00;100220.97;4977172;28;20050;-64
2022/02/04 13:52:25;;;;;;;19.13;7.72;;;;;;;11.66;100.00;100219.88;4977294;28;20043;-66
2022/02/04 13:56:14;;;;;;;14.27;6.90;;;;;;;11.27;100.00;100225.28;4977745;28;20117;-67
2022/02/04 13:58:42;;;;;;;14.85;6.93;;;;;;;11.31;100.00;100207.75;4956352;28;20510;-68
2022/02/04 14:03:44;;;;;;;17.05;7.22;;;;;;;11.15;100.00;100233.97;4977429;28;20510;-68
2022/02/04 14:06:15;;;;;;;14.95;8.07;;;;;;;10.92;100.00;100221.13;4977527;28;20505;-66
2022/02/04 14:08:55;;;;;;;14.70;8.57;;;;;;;11.17;100.00;100181.03;4961161;28;20499;-68
2022/02/04 14:11:38;;;;;;;16.83;8.40;;;;;;;11.35;100.00;100181.38;4977452;28;20481;-67
2022/02/04 14:14:08;;;;;;;15.02;8.80;;;;;;;11.22;100.00;100180.41;4960245;28;20514;-67
2022/02/04 14:16:34;;;;;;;16.98;9.45;;;;;;;11.01;100.00;100198.44;4977313;28;20043;-69
2022/02/04 14:19:00;;;;;;;28.50;8.27;;;;;;;11.04;100.00;100211.38;4977336;28;20511;-70
2022/02/04 14:21:25;;;;;;;19.35;8.25;;;;;;;11.35;100.00;100202.78;4977567;28;20039;-69
2022/02/04 14:23:57;;;;;;;17.20;8.23;;;;;;;11.68;100.00;100236.53;4977022;28;20495;-68
2022/02/04 14:26:28;;;;;;;21.50;9.43;;;;;;;11.91;100.00;100274.28;4977201;28;20046;-67
2022/02/04 14:29:07;;;;;;;15.13;4.07;;;;;;;11.38;100.00;100301.41;4977150;28;20038;-68
2022/02/04 15:06:59;;;;;;;6.23;3.07;;;;;;;10.12;100.00;100422.53;4956872;29;20080;-68
2022/02/04 15:09:16;;;;;;;12.50;3.53;;;;;;;9.81;100.00;100426.59;4935685;29;20762;-67
2022/02/04 15:11:43;;;;;;;6.13;3.07;;;;;;;10.18;100.00;100449.28;4940052;29;20094;-67
2022/02/04 15:14:11;;;;;;;5.10;3.20;;;;;;;10.03;100.00;100467.31;4940172;29;20341;-68
2022/02/04 15:16:37;;;;;;;7.03;3.67;;;;;;;10.28;100.00;100469.44;4939947;29;20511;-68
2022/02/04 15:19:04;;;;;;;;;;;;;;;9.86;100.00;100473.00;4957146;29;20074;-68
2022/02/04 15:21:30;;;;;;;7.05;2.50;;;;;;;10.10;100.00;100472.69;4957065;29;20351;-67
2022/02/04 15:23:57;;;;;;;5.25;2.20;;;;;;;10.16;100.00;100477.22;4956506;29;20039;-68
2022/02/04 15:26:26;;;;;;;3.03;1.70;;;;;;;9.85;100.00;100498.06;4939186;29;20492;-66
2022/02/04 15:28:58;;;;;;;3.70;1.83;;;;;;;10.05;100.00;100518.72;4939705;29;20492;-68
2022/02/04 15:33:53;;;;;;;5.82;2.10;;;;;;;10.03;100.00;100523.44;4957066;29;20074;-67
2022/02/04 15:36:29;;;;;;;3.65;1.77;;;;;;;9.52;100.00;100541.47;4939352;29;20507;-68
2022/02/04 15:38:56;;;;;;;6.70;1.70;;;;;;;10.07;100.00;100543.38;4940772;29;20102;-66
2022/02/04 15:41:24;;;;;;;4.95;2.00;;;;;;;9.74;100.00;100557.41;4956003;29;20584;-67
2022/02/04 15:43:54;;;;;;;5.53;1.90;;;;;;;10.08;100.00;100568.25;4939244;29;20476;-66
2022/02/04 15:49:11;;;;;;;4.80;1.83;;;;;;;9.77;100.00;100581.03;4967173;28;20053;-66
2022/02/04 15:52:01;;;;;;;5.18;2.15;;;;;;;9.82;100.00;100594.63;4958912;28;20375;-66
2022/02/04 16:00:09;;;;;;;7.78;2.13;;;;;;;9.81;100.00;100610.88;4975531;28;20487;-66
2022/02/04 16:04:56;;;;;;;12.40;3.20;;;;;;;9.59;100.00;100632.28;4957178;28;20051;-66
2022/02/04 16:07:24;;;;;;;6.95;2.92;;;;;;;9.85;100.00;100647.66;4957909;28;20049;-67
2022/02/04 16:09:58;;;;;;;7.90;3.00;;;;;;;9.66;100.00;100651.84;4975317;28;20038;-67
2022/02/04 16:12:31;;;;;;;6.35;2.65;;;;;;;9.23;100.00;100660.72;4974982;28;20058;-67
2022/02/04 16:15:20;;;;;;;3.55;1.58;;;;;;;8.95;100.00;100688.13;4957916;28;20114;-66
2022/02/04 16:17:54;;;;;;;7.03;1.83;;;;;;;9.72;100.00;100674.28;4961289;28;20062;-67
2022/02/04 16:20:28;;;;;;;7.50;1.60;;;;;;;9.67;100.00;100682.03;4973852;28;20454;-65
2022/02/04 16:23:05;;;;;;;20.10;2.42;;;;;;;9.09;100.00;100697.09;4958932;28;20043;-66
2022/02/04 16:30:40;;;;;;;1.83;0.73;;;;;;;8.80;100.00;100719.34;4975025;28;20741;-67
2022/02/04 16:33:05;;;;;;;4.28;1.17;;;;;;;9.13;100.00;100730.41;4974581;28;20043;-65
2022/02/04 16:35:32;;;;;;;4.00;1.23;;;;;;;8.97;100.00;100731.44;4941525;28;20145;-66
2022/02/04 16:38:03;;;;;;;4.68;1.27;;;;;;;9.07;100.00;100733.00;4957561;28;20498;-66
2022/02/04 16:40:32;;;;;;;4.97;1.13;;;;;;;9.18;100.00;100741.34;4957745;28;20120;-68
2022/02/04 16:42:58;;;;;;;5.75;1.70;;;;;;;9.22;100.00;100757.78;4974876;28;20062;-67
2022/02/04 16:45:23;;;;;;;8.55;3.35;;;;;;;9.51;100.00;100763.22;4957758;28;20476;-68
2022/02/04 16:47:52;;;;;;;8.77;1.75;;;;;;;9.24;100.00;100763.78;4957276;28;20154;-67
2022/02/04 16:50:21;;;;;;;4.97;2.03;;;;;;;9.08;100.00;100780.00;4974656;28;20443;-66
2022/02/04 16:52:51;;;;;;;6.65;1.30;;;;;;;9.30;100.00;100787.03;4974542;28;20402;-65
2022/02/04 16:55:19;;;;;;;4.30;1.25;;;;;;;9.06;100.00;100792.69;4957180;28;20043;-66
2022/02/04 16:57:46;;;;;;;9.13;1.27;;;;;;;8.74;100.00;100801.72;4958073;28;20070;-66
2022/02/04 17:00:22;;;;;;;7.07;1.35;;;;;;;9.13;100.00;100807.78;4974357;28;20451;-66
2022/02/04 17:02:49;;;;;;;5.82;1.10;;;;;;;8.64;100.00;100819.00;4974720;28;20042;-68
2022/02/04 17:05:15;;;;;;;3.83;1.45;;;;;;;9.11;100.00;100832.97;4957552;28;20047;-66
2022/02/04 17:07:43;;;;;;;7.55;1.42;;;;;;;8.85;100.00;100847.63;4974179;28;20436;-67
2022/02/04 17:10:11;;;;;;;6.78;1.55;;;;;;;9.23;100.00;100860.84;4974001;28;20441;-66
2022/02/04 17:12:43;;;;;;;11.50;1.45;;;;;;;8.83;100.00;100854.97;4974676;28;20506;-66
2022/02/04 17:15:09;;;;;;;8.98;1.50;;;;;;;9.37;100.00;100863.69;4957934;28;20066;-67
2022/02/04 17:17:35;;;;;;;26.70;4.03;;;;;;;9.29;100.00;100867.28;4979761;28;20444;-66
2022/02/04 17:20:11;;;;;;;19.02;7.20;;;;;;;9.23;100.00;100874.19;4963099;28;20117;-66
2022/02/04 17:22:38;;;;;;;11.57;2.65;;;;;;;8.71;100.00;100886.59;4980593;28;20476;-66
2022/02/04 17:25:11;;;;;;;6.05;1.70;;;;;;;8.56;100.00;100881.25;4980543;28;20038;-67
2022/02/04 17:27:38;;;;;;;16.25;2.75;;;;;;;8.82;100.00;100875.47;4932197;28;20047;-64
2022/02/04 17:30:06;;;;;;;4.93;1.75;;;;;;;8.91;100.00;100889.56;4963367;28;20057;-66
2022/02/04 17:32:32;;;;;;;6.95;2.10;;;;;;;8.35;100.00;100880.06;4963364;28;20399;-67
2022/02/04 17:34:58;;;;;;;14.77;1.60;;;;;;;8.50;100.00;100884.63;4963235;28;20042;-66
2022/02/04 17:37:25;;;;;;;10.55;2.00;;;;;;;8.74;100.00;100900.38;4980459;28;20042;-63
2022/02/04 17:39:54;;;;;;;7.97;2.30;;;;;;;8.52;100.00;100902.09;4962974;28;20491;-68
2022/02/04 17:42:23;;;;;;;16.70;3.72;;;;;;;8.56;100.00;100906.06;4980356;28;20459;-66
2022/02/04 17:44:54;;;;;;;21.70;4.78;;;;;;;8.39;100.00;100910.66;4980546;28;20054;-67
2022/02/04 17:47:24;;;;;;;41.55;10.60;;;;;;;8.35;100.00;100914.72;4963265;28;20058;-66